Time;durP1;ratioP1;P1;durP2;ratioP2;P2;SDS_P1;SDS_P2;PMS_P1;PMS_P2;Temp;Humidity;BMP_temperature;BMP_pressure;BME280_temperature;BME280_humidity;BME280_pressure;Samples;Min_cycle;Max_cycle;Signal;HPM_P1;HPM_P2
2022/03/11 00:01:46;;;;;;;28.40;13.00;;;;;;;5.78;48.20;101645.97;5072455;28;20031;-68
2022/03/11 00:04:11;;;;;;;27.63;14.25;;;;;;;5.73;48.31;101639.69;5072611;28;20028;-69
2022/03/11 00:06:37;;;;;;;28.30;13.90;;;;;;;5.68;48.21;101639.50;5072599;28;20063;-68
2022/03/11 00:09:03;;;;;;;27.23;13.93;;;;;;;5.65;48.22;101638.50;5072505;28;20028;-69
2022/03/11 00:11:28;;;;;;;27.95;14.50;;;;;;;5.58;48.19;101634.75;5072260;28;20123;-68
2022/03/11 00:13:53;;;;;;;30.40;14.43;;;;;;;5.58;48.73;101619.91;5072388;28;20031;-68
2022/03/11 00:16:19;;;;;;;29.95;15.32;;;;;;;5.59;48.45;101629.56;5072281;28;20375;-68
2022/03/11 00:18:45;;;;;;;28.13;14.93;;;;;;;5.58;48.36;101619.91;5072200;28;20024;-69
2022/03/11 00:21:12;;;;;;;28.75;14.77;;;;;;;5.56;48.51;101626.84;5072687;28;20017;-69
2022/03/11 00:23:39;;;;;;;26.73;14.32;;;;;;;5.51;48.99;101628.38;5072519;28;20025;-69
2022/03/11 00:26:05;;;;;;;27.33;14.25;;;;;;;5.50;48.46;101617.84;5072148;28;20027;-68
2022/03/11 00:28:30;;;;;;;28.90;14.98;;;;;;;5.47;48.38;101618.59;5072646;28;20033;-69
2022/03/11 00:30:55;;;;;;;30.00;15.07;;;;;;;5.50;48.46;101623.09;5072286;28;20037;-68
2022/03/11 00:33:21;;;;;;;29.13;14.70;;;;;;;5.49;48.41;101621.28;5072123;28;20104;-69
2022/03/11 00:35:46;;;;;;;28.67;15.02;;;;;;;5.49;48.82;101622.19;5072279;28;20433;-69
2022/03/11 00:38:11;;;;;;;28.88;14.30;;;;;;;5.47;48.71;101623.84;5071872;28;20025;-69
2022/03/11 00:40:37;;;;;;;27.95;14.77;;;;;;;5.44;48.61;101623.75;5072109;28;20039;-68
2022/03/11 00:43:02;;;;;;;28.35;14.60;;;;;;;5.43;49.01;101619.31;5068419;28;20024;-68
2022/03/11 00:45:28;;;;;;;27.77;14.98;;;;;;;5.37;48.98;101613.84;5071890;28;20379;-70
2022/03/11 00:47:53;;;;;;;28.23;14.35;;;;;;;5.36;49.36;101619.97;5071886;28;20032;-70
2022/03/11 00:50:19;;;;;;;29.85;15.48;;;;;;;5.36;48.89;101606.84;5072073;28;20471;-70
2022/03/11 00:52:45;;;;;;;28.00;14.48;;;;;;;5.31;49.34;101611.00;5072080;28;20462;-70
2022/03/11 00:55:11;;;;;;;28.33;14.88;;;;;;;5.26;49.13;101599.44;5073118;28;20044;-70
2022/03/11 00:57:36;;;;;;;29.05;14.40;;;;;;;5.33;48.96;101601.47;5075859;28;20039;-71
2022/03/11 01:00:03;;;;;;;27.70;14.82;;;;;;;5.35;48.94;101607.66;5075575;28;20028;-70
2022/03/11 01:02:33;;;;;;;27.42;14.73;;;;;;;5.38;48.48;101600.78;5075529;28;20483;-70
2022/03/11 01:04:58;;;;;;;28.35;15.40;;;;;;;5.34;49.25;101590.16;5075570;28;20032;-70
2022/03/11 01:07:23;;;;;;;29.13;15.38;;;;;;;5.36;49.35;101588.50;5075335;28;20024;-70
2022/03/11 01:09:49;;;;;;;27.85;14.63;;;;;;;5.26;49.44;101595.09;5075347;28;20044;-71
2022/03/11 01:12:14;;;;;;;28.52;14.68;;;;;;;5.25;49.67;101585.44;5075580;28;20361;-70
2022/03/11 01:14:39;;;;;;;27.00;13.95;;;;;;;5.19;49.18;101583.47;5075525;28;20119;-70
2022/03/11 01:17:05;;;;;;;29.05;14.75;;;;;;;5.17;49.35;101582.53;5075230;28;20471;-70
2022/03/11 01:19:30;;;;;;;28.42;14.45;;;;;;;5.14;49.73;101576.28;5075126;28;20051;-71
2022/03/11 01:21:57;;;;;;;27.27;14.25;;;;;;;5.09;49.74;101578.72;5075318;28;20394;-70
2022/03/11 01:24:22;;;;;;;28.17;14.77;;;;;;;5.06;49.55;101574.25;5075338;28;20025;-70
2022/03/11 01:26:47;;;;;;;27.95;14.45;;;;;;;5.01;49.37;101564.41;5075088;28;20543;-71
2022/03/11 01:29:13;;;;;;;29.58;15.20;;;;;;;4.98;50.11;101554.75;5075232;28;20021;-70
2022/03/11 01:31:38;;;;;;;28.05;14.77;;;;;;;4.96;49.91;101560.75;5075112;28;20021;-70
2022/03/11 01:34:03;;;;;;;27.73;14.48;;;;;;;4.98;49.70;101566.94;5073907;28;20041;-70
2022/03/11 01:36:29;;;;;;;27.98;14.75;;;;;;;4.96;50.15;101550.25;5075070;28;20024;-69
2022/03/11 01:38:56;;;;;;;29.20;14.50;;;;;;;4.98;49.08;101559.06;5075030;28;20048;-69
2022/03/11 01:41:22;;;;;;;29.23;15.25;;;;;;;4.88;50.12;101550.84;5074832;28;20025;-70
2022/03/11 01:43:58;;;;;;;27.02;13.98;;;;;;;4.86;50.13;101547.31;5074813;28;20641;-69
2022/03/11 01:46:24;;;;;;;27.52;14.40;;;;;;;4.91;49.89;101546.56;5074841;28;20031;-70
2022/03/11 01:48:49;;;;;;;28.13;13.95;;;;;;;4.88;50.51;101542.13;5074690;28;20025;-69
2022/03/11 01:51:16;;;;;;;29.02;14.68;;;;;;;4.80;49.92;101531.31;5074651;28;20025;-69
2022/03/11 01:53:41;;;;;;;27.20;14.57;;;;;;;4.79;50.35;101537.41;5074712;28;20020;-69
2022/03/11 01:56:07;;;;;;;26.90;14.40;;;;;;;4.78;50.49;101525.16;5074591;28;20081;-69
2022/03/11 01:58:33;;;;;;;27.77;14.13;;;;;;;4.77;49.99;101518.09;5074384;28;20379;-69
2022/03/11 02:00:58;;;;;;;27.75;14.13;;;;;;;4.78;50.20;101522.53;5074603;28;20029;-69
2022/03/11 02:03:23;;;;;;;28.42;14.60;;;;;;;4.72;50.27;101524.91;5074286;28;20038;-69
2022/03/11 02:05:49;;;;;;;28.92;14.25;;;;;;;4.70;50.54;101516.09;5072969;28;20502;-69
2022/03/11 02:08:14;;;;;;;28.20;14.20;;;;;;;4.65;50.54;101509.78;5074122;28;20024;-69
2022/03/11 02:10:40;;;;;;;28.17;14.13;;;;;;;4.65;50.45;101513.28;5072694;28;20037;-70
2022/03/11 02:13:06;;;;;;;28.05;14.85;;;;;;;4.66;50.68;101503.69;5081425;28;20049;-70
2022/03/11 02:15:32;;;;;;;29.27;14.52;;;;;;;4.60;50.60;101495.59;5074295;28;20476;-71
2022/03/11 02:17:57;;;;;;;28.40;14.10;;;;;;;4.60;50.54;101499.13;5073897;28;20037;-70
2022/03/11 02:20:23;;;;;;;29.25;15.02;;;;;;;4.59;50.37;101494.72;5074454;28;20024;-70
2022/03/11 02:22:50;;;;;;;26.60;14.10;;;;;;;4.54;50.48;101494.53;5074003;28;20463;-70
2022/03/11 02:25:15;;;;;;;30.08;14.77;;;;;;;4.45;51.12;101491.53;5074225;28;20029;-70
2022/03/11 02:27:42;;;;;;;28.23;14.73;;;;;;;4.45;50.59;101485.44;5074071;28;20020;-70
2022/03/11 02:30:16;;;;;;;29.23;13.90;;;;;;;4.42;50.83;101478.34;5073869;28;20028;-71
2022/03/11 02:32:42;;;;;;;28.92;14.85;;;;;;;4.40;51.39;101484.34;5070879;28;20025;-71
2022/03/11 02:35:08;;;;;;;27.75;14.90;;;;;;;4.38;51.14;101473.81;5073688;28;20024;-70
2022/03/11 02:37:34;;;;;;;26.90;14.13;;;;;;;4.39;51.26;101469.47;5069937;28;20369;-71
2022/03/11 02:39:59;;;;;;;27.73;14.63;;;;;;;4.35;51.34;101463.22;5073608;28;20472;-70
2022/03/11 02:42:24;;;;;;;27.58;14.30;;;;;;;4.30;51.51;101467.41;5073808;28;20031;-70
2022/03/11 02:44:50;;;;;;;29.15;14.63;;;;;;;4.24;51.86;101470.66;5073742;28;20021;-71
2022/03/11 02:47:15;;;;;;;30.13;14.57;;;;;;;4.24;51.75;101469.75;5073628;28;20142;-70
2022/03/11 02:49:40;;;;;;;29.85;14.57;;;;;;;4.24;51.64;101477.59;5073563;28;20025;-70
2022/03/11 02:52:06;;;;;;;27.83;14.68;;;;;;;4.24;51.24;101468.03;5073367;28;20078;-70
2022/03/11 02:54:31;;;;;;;27.52;14.23;;;;;;;4.23;51.58;101462.75;5073230;28;20078;-70
2022/03/11 02:56:57;;;;;;;28.45;15.18;;;;;;;4.22;51.37;101463.56;5080716;28;20033;-70
2022/03/11 02:59:22;;;;;;;28.10;14.70;;;;;;;4.16;51.71;101456.34;5073275;28;20026;-71
2022/03/11 03:01:48;;;;;;;29.27;15.10;;;;;;;4.21;51.13;101453.91;5073215;28;20426;-71
2022/03/11 03:04:13;;;;;;;27.38;14.73;;;;;;;4.15;51.59;101450.25;5073245;28;20021;-70
2022/03/11 03:06:39;;;;;;;27.38;14.23;;;;;;;4.16;51.15;101459.84;5073193;28;20024;-71
2022/03/11 03:09:05;;;;;;;27.92;14.35;;;;;;;4.18;51.01;101449.47;5073208;28;20020;-70
2022/03/11 03:11:30;;;;;;;28.63;15.02;;;;;;;4.15;51.48;101449.31;5073165;28;20398;-72
2022/03/11 03:13:56;;;;;;;29.10;15.20;;;;;;;4.16;51.32;101449.38;5073022;28;20047;-70
2022/03/11 03:16:21;;;;;;;27.80;14.57;;;;;;;4.13;50.95;101448.38;5072957;28;20021;-70
2022/03/11 03:18:46;;;;;;;27.23;13.70;;;;;;;4.11;51.33;101442.22;5072031;28;20033;-70
2022/03/11 03:21:11;;;;;;;27.02;14.27;;;;;;;4.12;51.51;101449.22;5073006;28;20021;-71
2022/03/11 03:23:37;;;;;;;27.58;14.30;;;;;;;4.04;51.62;101451.53;5068227;28;20060;-71
2022/03/11 03:26:02;;;;;;;28.70;14.52;;;;;;;4.13;51.27;101451.88;5072707;28;20021;-71
2022/03/11 03:28:28;;;;;;;28.02;14.82;;;;;;;4.03;51.49;101441.88;5072857;28;20024;-71
2022/03/11 03:30:53;;;;;;;28.13;14.48;;;;;;;4.06;51.18;101449.84;5072999;28;20028;-71
2022/03/11 03:33:19;;;;;;;28.33;14.82;;;;;;;4.05;51.66;101448.09;5072669;28;20031;-70
2022/03/11 03:35:44;;;;;;;29.25;14.45;;;;;;;4.00;51.43;101445.28;5072629;28;20078;-69
2022/03/11 03:38:09;;;;;;;27.50;14.32;;;;;;;3.97;51.48;101453.00;5072781;28;20487;-69
2022/03/11 03:40:35;;;;;;;28.33;14.90;;;;;;;3.93;51.39;101448.47;5072734;28;20020;-70
2022/03/11 03:43:00;;;;;;;28.00;14.68;;;;;;;3.92;52.11;101446.69;5072624;28;20031;-69
2022/03/11 03:45:26;;;;;;;28.40;14.75;;;;;;;3.86;52.35;101443.84;5072722;28;20082;-70
2022/03/11 03:47:51;;;;;;;28.08;14.63;;;;;;;3.89;51.52;101437.81;5072590;28;20025;-70
2022/03/11 03:50:16;;;;;;;28.88;14.30;;;;;;;3.80;51.99;101438.31;5072557;28;20051;-70
2022/03/11 03:52:42;;;;;;;28.45;14.70;;;;;;;3.82;51.59;101440.19;5072591;28;20085;-69
2022/03/11 03:55:08;;;;;;;27.30;13.95;;;;;;;3.81;51.95;101433.16;5072566;28;20147;-69
2022/03/11 03:57:34;;;;;;;27.05;14.27;;;;;;;3.81;51.57;101445.34;5068244;28;20471;-69
2022/03/11 03:59:59;;;;;;;27.80;14.65;;;;;;;3.76;52.18;101439.94;5072648;28;20020;-70
2022/03/11 04:02:24;;;;;;;29.95;14.65;;;;;;;3.72;52.52;101437.13;5072408;28;20060;-70
2022/03/11 04:04:50;;;;;;;27.17;14.35;;;;;;;3.70;52.53;101437.06;5072573;28;20020;-70
2022/03/11 04:07:15;;;;;;;27.92;13.77;;;;;;;3.67;52.20;101434.31;5071017;28;20091;-70
2022/03/11 04:09:41;;;;;;;29.00;14.30;;;;;;;3.67;52.38;101427.38;5072222;28;20021;-70
2022/03/11 04:12:07;;;;;;;27.67;14.25;;;;;;;3.67;52.38;101440.44;5072425;28;20491;-70
2022/03/11 04:14:32;;;;;;;26.98;14.75;;;;;;;3.58;52.90;101431.31;5072265;28;20051;-70
2022/03/11 04:16:57;;;;;;;26.77;14.05;;;;;;;3.53;52.98;101428.50;5072225;28;20032;-70
2022/03/11 04:19:23;;;;;;;27.65;14.20;;;;;;;3.44;53.19;101429.00;5072453;28;20463;-70
2022/03/11 04:21:48;;;;;;;27.98;14.25;;;;;;;3.43;53.15;101427.22;5072192;28;20509;-70
2022/03/11 04:24:14;;;;;;;27.10;13.98;;;;;;;3.40;53.18;101427.09;5072472;28;20501;-70
2022/03/11 04:26:43;;;;;;;26.73;13.68;;;;;;;3.48;52.56;101428.31;5072283;28;20111;-70
2022/03/11 04:29:09;;;;;;;26.52;13.60;;;;;;;3.46;53.10;101424.72;5072208;28;20538;-70
2022/03/11 04:31:34;;;;;;;28.20;13.57;;;;;;;3.48;52.75;101414.31;5075906;28;20031;-70
2022/03/11 04:34:01;;;;;;;27.83;13.90;;;;;;;3.52;52.65;101415.38;5076512;28;20448;-71
2022/03/11 04:36:28;;;;;;;27.38;13.45;;;;;;;3.49;52.67;101413.50;5075896;28;20536;-71
2022/03/11 04:38:53;;;;;;;26.60;13.43;;;;;;;3.48;52.89;101415.25;5075824;28;20062;-70
2022/03/11 04:41:19;;;;;;;29.10;13.40;;;;;;;3.47;52.71;101409.94;5076075;28;20409;-71
2022/03/11 04:43:45;;;;;;;25.58;12.63;;;;;;;3.47;52.65;101413.44;5076088;28;20393;-71
2022/03/11 04:46:10;;;;;;;27.83;13.45;;;;;;;3.49;52.65;101410.91;5075828;28;20103;-70
2022/03/11 04:48:36;;;;;;;25.83;12.52;;;;;;;3.54;52.21;101413.69;5076078;28;20028;-71
2022/03/11 04:51:04;;;;;;;28.17;13.50;;;;;;;3.58;52.05;101415.63;5075720;28;20372;-71
2022/03/11 04:53:29;;;;;;;27.25;13.73;;;;;;;3.53;52.31;101411.94;5075536;28;20036;-71
2022/03/11 04:55:55;;;;;;;27.48;13.65;;;;;;;3.51;52.48;101414.50;5075856;28;20376;-71
2022/03/11 04:58:20;;;;;;;26.65;13.13;;;;;;;3.47;52.16;101409.94;5075466;28;20032;-71
2022/03/11 05:00:46;;;;;;;25.48;12.52;;;;;;;3.51;52.35;101411.88;5075752;28;20060;-71
2022/03/11 05:03:12;;;;;;;26.50;13.10;;;;;;;3.48;52.36;101410.00;5075443;28;20025;-71
2022/03/11 05:05:37;;;;;;;25.20;12.65;;;;;;;3.42;52.32;101407.16;5075588;28;20035;-71
2022/03/11 05:08:02;;;;;;;27.13;13.40;;;;;;;3.35;52.71;101407.72;5075473;28;20016;-71
2022/03/11 05:10:28;;;;;;;26.95;13.27;;;;;;;3.34;52.95;101412.88;5075374;28;20115;-71
2022/03/11 05:12:53;;;;;;;25.85;12.60;;;;;;;3.34;53.14;101405.03;5072982;28;20024;-71
2022/03/11 05:15:19;;;;;;;25.75;12.48;;;;;;;3.35;52.93;101404.19;5075694;28;20341;-71
2022/03/11 05:17:45;;;;;;;25.52;12.43;;;;;;;3.39;52.61;101404.38;5075203;28;20032;-71
2022/03/11 05:20:11;;;;;;;27.50;12.85;;;;;;;3.39;52.78;101399.16;5075161;28;20044;-71
2022/03/11 05:22:36;;;;;;;26.80;12.60;;;;;;;3.56;52.13;101401.59;5075668;28;20506;-71
2022/03/11 05:25:02;;;;;;;26.02;12.38;;;;;;;3.53;52.41;101402.34;5075291;28;20115;-71
2022/03/11 05:27:27;;;;;;;26.95;12.25;;;;;;;3.56;51.95;101407.72;5075072;28;20352;-71
2022/03/11 05:29:53;;;;;;;24.70;11.70;;;;;;;3.54;51.83;101393.69;5075412;28;20436;-71
2022/03/11 05:32:20;;;;;;;26.58;12.68;;;;;;;3.61;51.51;101400.06;5074905;28;20055;-71
2022/03/11 05:34:46;;;;;;;25.65;12.57;;;;;;;3.61;51.80;101389.59;5070945;28;20483;-71
2022/03/11 05:37:12;;;;;;;26.65;12.07;;;;;;;3.62;51.90;101386.16;5075057;28;20028;-69
2022/03/11 05:39:38;;;;;;;25.02;12.18;;;;;;;3.62;51.70;101389.66;5074771;28;20028;-70
2022/03/11 05:42:04;;;;;;;25.45;12.77;;;;;;;3.56;52.20;101394.63;5074310;28;20032;-70
2022/03/11 05:44:30;;;;;;;24.85;12.02;;;;;;;3.57;51.91;101392.91;5074987;28;20039;-70
2022/03/11 05:46:56;;;;;;;25.40;12.40;;;;;;;3.50;52.71;101402.22;5074801;28;20028;-70
2022/03/11 05:49:22;;;;;;;26.90;12.52;;;;;;;3.54;52.32;101398.00;5075047;28;20383;-70
2022/03/11 05:51:47;;;;;;;25.00;12.38;;;;;;;3.57;52.04;101393.81;5074637;28;20071;-70
2022/03/11 05:54:13;;;;;;;25.27;12.80;;;;;;;3.58;52.26;101394.69;5074416;28;20020;-70
2022/03/11 05:56:39;;;;;;;26.90;12.82;;;;;;;3.55;52.29;101394.56;5074859;28;20035;-69
2022/03/11 05:59:04;;;;;;;25.58;12.52;;;;;;;3.61;51.88;101400.06;5074651;28;20090;-70
2022/03/11 06:01:34;;;;;;;26.15;12.55;;;;;;;3.54;53.12;101383.25;5074408;28;20036;-70
2022/03/11 06:04:01;;;;;;;26.88;12.20;;;;;;;3.52;53.62;101384.88;5074652;28;20027;-69
2022/03/11 06:06:27;;;;;;;26.23;12.50;;;;;;;3.52;53.20;101384.88;5074261;28;20029;-70
2022/03/11 06:08:53;;;;;;;26.58;12.60;;;;;;;3.59;52.54;101386.03;5074130;28;20019;-69
2022/03/11 06:11:18;;;;;;;26.75;13.00;;;;;;;3.61;53.17;101384.38;5074280;28;20134;-70
2022/03/11 06:13:43;;;;;;;27.75;12.90;;;;;;;3.60;52.71;101383.47;5074151;28;20074;-69
2022/03/11 06:16:09;;;;;;;25.48;12.40;;;;;;;3.56;53.29;101385.91;5074201;28;20028;-69
2022/03/11 06:18:34;;;;;;;25.27;12.15;;;;;;;3.58;53.45;101385.16;5074234;28;20039;-68
2022/03/11 06:20:59;;;;;;;26.20;12.27;;;;;;;3.67;53.23;101388.13;5073950;28;20062;-70
2022/03/11 06:23:25;;;;;;;27.33;13.00;;;;;;;3.67;53.18;101389.88;5074049;28;20029;-69
2022/03/11 06:25:50;;;;;;;24.92;12.50;;;;;;;3.68;53.03;101391.63;5073973;28;20395;-71
2022/03/11 06:28:16;;;;;;;27.48;12.35;;;;;;;3.72;52.86;101388.31;5073854;28;20020;-71
2022/03/11 06:30:42;;;;;;;27.45;12.75;;;;;;;3.77;52.87;101392.03;5073850;28;20035;-71
2022/03/11 06:33:09;;;;;;;27.27;13.15;;;;;;;3.86;52.45;101393.22;5074266;28;20471;-70
2022/03/11 06:35:34;;;;;;;26.63;12.93;;;;;;;3.94;52.16;101394.44;5073779;28;20028;-71
2022/03/11 06:37:59;;;;;;;27.55;12.65;;;;;;;4.00;51.92;101385.13;5071677;28;20105;-71
2022/03/11 06:40:25;;;;;;;25.73;12.82;;;;;;;4.04;52.31;101393.09;5073684;28;20028;-71
2022/03/11 06:42:51;;;;;;;25.98;12.80;;;;;;;4.06;52.53;101391.41;5073614;28;20020;-71
2022/03/11 06:45:18;;;;;;;27.00;12.73;;;;;;;4.13;52.06;101393.44;5073805;28;20029;-72
2022/03/11 06:47:47;;;;;;;29.35;12.75;;;;;;;4.21;51.64;101394.63;5063407;28;20408;-72
2022/03/11 06:50:14;;;;;;;25.88;12.65;;;;;;;4.28;51.67;101395.75;5064625;28;20029;-68
2022/03/11 06:52:39;;;;;;;26.88;12.55;;;;;;;4.32;51.63;101392.41;5064777;28;20036;-69
2022/03/11 06:55:06;;;;;;;26.58;12.68;;;;;;;4.32;51.90;101390.69;5064811;28;20867;-70
2022/03/11 06:57:32;;;;;;;25.80;12.73;;;;;;;4.41;51.79;101394.50;5063045;28;20036;-69
2022/03/11 06:59:58;;;;;;;27.55;12.88;;;;;;;4.41;51.35;101390.16;5063298;28;20376;-69
2022/03/11 07:02:23;;;;;;;26.73;13.15;;;;;;;4.47;51.64;101395.63;5064729;28;20046;-69
2022/03/11 07:04:48;;;;;;;27.00;12.93;;;;;;;4.53;51.18;101376.66;5064818;28;20021;-68
2022/03/11 07:07:14;;;;;;;26.73;13.57;;;;;;;4.54;51.57;101374.09;5064890;28;20032;-68
2022/03/11 07:09:39;;;;;;;25.95;13.00;;;;;;;4.62;50.94;101378.72;5063100;28;20146;-70
2022/03/11 07:12:05;;;;;;;27.58;13.13;;;;;;;4.65;51.94;101368.34;5064036;28;20067;-68
2022/03/11 07:14:33;;;;;;;26.83;13.10;;;;;;;4.70;50.91;101367.69;5062782;28;20049;-68
2022/03/11 07:16:59;;;;;;;26.45;13.30;;;;;;;4.74;50.90;101365.19;5063656;28;20032;-68
2022/03/11 07:19:24;;;;;;;27.35;13.27;;;;;;;4.84;50.68;101365.56;5062395;28;20133;-68
2022/03/11 07:21:50;;;;;;;26.60;13.45;;;;;;;4.93;50.77;101370.22;5064924;28;20043;-67
2022/03/11 07:24:16;;;;;;;27.63;13.63;;;;;;;5.03;50.94;101367.09;5064364;28;20033;-67
2022/03/11 07:26:41;;;;;;;26.13;13.05;;;;;;;5.14;49.64;101363.97;5064676;28;20032;-67
2022/03/11 07:29:07;;;;;;;28.00;13.95;;;;;;;5.22;49.92;101368.63;5061044;28;20573;-68
2022/03/11 07:31:32;;;;;;;27.58;13.20;;;;;;;5.35;49.22;101371.69;5063976;28;20040;-68
2022/03/11 07:33:58;;;;;;;26.75;12.90;;;;;;;5.42;49.34;101371.06;5062709;28;20039;-67
2022/03/11 07:36:24;;;;;;;27.30;13.13;;;;;;;5.46;49.42;101362.47;5064697;28;20100;-67
2022/03/11 07:38:50;;;;;;;27.77;13.10;;;;;;;5.57;48.67;101379.44;5062863;28;20103;-68
2022/03/11 07:41:16;;;;;;;27.80;13.80;;;;;;;5.64;49.21;101374.41;5063259;28;20442;-68
2022/03/11 07:43:44;;;;;;;28.23;13.20;;;;;;;5.74;48.46;101379.13;5064468;28;20082;-67
2022/03/11 07:46:15;;;;;;;26.92;13.48;;;;;;;5.81;48.33;101373.22;5063648;28;20032;-67
2022/03/11 07:48:41;;;;;;;26.70;13.32;;;;;;;5.89;48.09;101366.47;5061553;28;20043;-69
2022/03/11 07:51:07;;;;;;;28.00;13.82;;;;;;;5.91;47.90;101363.88;5064036;28;20414;-67
2022/03/11 07:53:33;;;;;;;27.15;13.90;;;;;;;5.94;49.29;101367.53;5063804;28;20043;-67
2022/03/11 07:55:58;;;;;;;28.95;13.88;;;;;;;5.96;47.47;101369.31;5063774;28;20896;-67
2022/03/11 07:58:24;;;;;;;27.90;13.88;;;;;;;6.07;48.06;101366.22;5062300;28;20047;-68
2022/03/11 08:00:50;;;;;;;26.50;13.60;;;;;;;6.10;47.46;101365.38;5063916;28;20025;-67
2022/03/11 08:03:16;;;;;;;28.63;14.05;;;;;;;6.20;47.09;101359.56;5063934;28;20025;-68
2022/03/11 08:05:42;;;;;;;28.30;14.02;;;;;;;6.34;47.64;101348.63;5068497;28;20380;-68
2022/03/11 08:08:08;;;;;;;27.13;14.18;;;;;;;6.44;46.87;101356.81;5069128;28;20699;-68
2022/03/11 08:10:36;;;;;;;27.60;13.77;;;;;;;6.58;46.00;101348.44;5070576;28;20052;-68
2022/03/11 08:13:02;;;;;;;29.05;14.63;;;;;;;6.72;46.67;101347.09;5070359;28;20041;-68
2022/03/11 08:15:27;;;;;;;27.92;14.73;;;;;;;6.81;46.15;101341.19;5070302;28;20063;-68
2022/03/11 08:17:52;;;;;;;29.02;14.20;;;;;;;6.92;46.49;101344.13;5069045;28;20138;-67
2022/03/11 08:20:18;;;;;;;28.40;13.95;;;;;;;7.04;47.13;101338.31;5069529;28;20020;-68
2022/03/11 08:22:45;;;;;;;27.83;14.18;;;;;;;7.11;46.27;101340.25;5070369;28;20446;-69
2022/03/11 08:25:11;;;;;;;26.90;14.30;;;;;;;7.18;46.20;101351.81;5070932;28;20032;-69
2022/03/11 08:27:40;;;;;;;27.75;14.57;;;;;;;7.26;45.88;101351.16;5070380;28;20044;-69
2022/03/11 08:30:07;;;;;;;28.13;14.75;;;;;;;7.38;45.33;101349.69;5067779;28;20036;-69
2022/03/11 08:32:33;;;;;;;27.77;14.55;;;;;;;7.56;44.82;101346.63;5070479;28;20042;-70
2022/03/11 08:34:58;;;;;;;27.80;14.20;;;;;;;7.68;45.28;101349.56;5070105;28;20029;-70
2022/03/11 08:37:25;;;;;;;28.50;14.73;;;;;;;7.72;45.44;101345.25;5070044;28;20074;-72
2022/03/11 08:39:50;;;;;;;27.33;14.30;;;;;;;7.79;44.40;101348.09;5068374;28;20028;-71
2022/03/11 08:42:16;;;;;;;28.33;14.57;;;;;;;7.77;44.11;101346.28;5070242;28;20075;-70
2022/03/11 08:44:41;;;;;;;30.35;15.50;;;;;;;7.72;44.78;101340.00;5070602;28;20028;-69
2022/03/11 08:47:07;;;;;;;28.20;14.52;;;;;;;7.83;46.11;101343.78;5071906;28;20040;-70
2022/03/11 08:49:32;;;;;;;27.75;15.18;;;;;;;7.93;44.71;101340.50;5078665;28;20375;-71
2022/03/11 08:51:57;;;;;;;27.80;14.98;;;;;;;8.18;44.65;101330.53;5078967;28;20451;-70
2022/03/11 08:54:23;;;;;;;28.00;15.23;;;;;;;8.27;44.28;101329.84;5078782;28;20025;-70
2022/03/11 08:56:48;;;;;;;28.65;15.63;;;;;;;8.40;43.82;101336.25;5078806;28;20024;-70
2022/03/11 08:59:14;;;;;;;29.15;15.55;;;;;;;8.47;43.84;101330.31;5078571;28;20153;-71
2022/03/11 09:01:39;;;;;;;29.23;15.85;;;;;;;8.65;44.05;101335.97;5078883;28;20025;-72
2022/03/11 09:04:05;;;;;;;29.17;15.23;;;;;;;8.90;43.39;101323.25;5078540;28;20101;-71
2022/03/11 09:06:30;;;;;;;28.05;15.57;;;;;;;9.10;42.96;101307.81;5078570;28;20056;-72
2022/03/11 09:08:56;;;;;;;28.30;15.10;;;;;;;9.29;42.61;101316.91;5078882;28;20066;-71
2022/03/11 09:11:21;;;;;;;28.17;14.85;;;;;;;9.41;42.39;101310.97;5078404;28;20124;-70
2022/03/11 09:13:49;;;;;;;29.52;15.65;;;;;;;9.69;41.77;101312.28;5078449;28;20070;-71
2022/03/11 09:16:14;;;;;;;30.52;15.45;;;;;;;10.04;40.83;101314.53;5077672;28;20059;-71
2022/03/11 09:18:40;;;;;;;29.17;15.77;;;;;;;10.35;40.84;101309.69;5075094;28;20067;-72
2022/03/11 09:21:05;;;;;;;28.00;15.60;;;;;;;10.51;39.93;101307.25;5075469;28;20024;-69
2022/03/11 09:23:30;;;;;;;27.77;14.88;;;;;;;10.74;40.34;101316.34;5075211;28;20017;-70
2022/03/11 09:25:56;;;;;;;27.80;14.05;;;;;;;10.70;39.96;101306.59;5074889;28;20040;-69
2022/03/11 09:28:22;;;;;;;29.73;15.57;;;;;;;10.48;39.78;101304.56;5075527;28;20024;-71
2022/03/11 09:30:48;;;;;;;28.00;14.90;;;;;;;10.64;39.30;101295.94;5075016;28;20024;-69
2022/03/11 09:33:13;;;;;;;29.42;15.68;;;;;;;11.15;39.85;101299.13;5074978;28;20034;-69
2022/03/11 09:35:38;;;;;;;27.58;15.27;;;;;;;11.60;38.62;101302.13;5075123;28;20025;-69
2022/03/11 09:38:04;;;;;;;26.95;14.35;;;;;;;11.61;38.39;101303.91;5074880;28;20496;-68
2022/03/11 09:40:30;;;;;;;30.40;15.82;;;;;;;11.53;39.08;101298.53;5064937;28;20515;-68
2022/03/11 09:42:57;;;;;;;26.35;14.32;;;;;;;11.64;38.45;101294.22;5065088;28;20487;-69
2022/03/11 09:45:25;;;;;;;28.88;14.77;;;;;;;11.69;37.97;101291.59;5066045;28;20434;-70
2022/03/11 09:47:51;;;;;;;29.40;14.80;;;;;;;12.06;37.87;101283.94;5066715;28;20032;-69
2022/03/11 09:50:17;;;;;;;28.05;14.73;;;;;;;12.63;37.77;101283.28;5064423;28;20399;-67
2022/03/11 09:52:44;;;;;;;29.40;15.07;;;;;;;13.16;36.89;101279.78;5066533;28;20490;-68
2022/03/11 09:55:10;;;;;;;27.98;15.25;;;;;;;13.68;35.72;101275.41;5066393;28;20320;-69
2022/03/11 09:57:36;;;;;;;28.15;15.38;;;;;;;13.77;34.72;101267.41;5065954;28;20032;-68
2022/03/11 10:00:04;;;;;;;28.08;15.55;;;;;;;13.72;35.07;101259.44;5063910;28;20037;-69
2022/03/11 10:02:29;;;;;;;27.52;14.52;;;;;;;13.98;34.98;101245.22;5065924;28;20055;-70
2022/03/11 10:04:58;;;;;;;27.85;14.70;;;;;;;14.11;35.44;101252.25;5066133;28;20028;-69
2022/03/11 10:07:28;;;;;;;27.85;15.25;;;;;;;14.36;34.00;101256.56;5066322;28;20028;-69
2022/03/11 10:09:55;;;;;;;29.45;15.93;;;;;;;14.71;34.04;101253.75;5062887;28;20036;-69
2022/03/11 10:12:29;;;;;;;27.80;15.40;;;;;;;15.08;33.36;101261.47;5062174;28;20076;-68
2022/03/11 10:15:03;;;;;;;28.45;15.70;;;;;;;15.36;33.67;101247.06;5065759;28;20033;-70
2022/03/11 10:17:43;;;;;;;26.65;14.32;;;;;;;16.11;32.51;101238.28;5065504;28;20162;-70
2022/03/11 10:20:13;;;;;;;29.25;15.25;;;;;;;16.58;30.98;101238.53;5062618;28;20498;-71
2022/03/11 10:22:40;;;;;;;27.35;14.10;;;;;;;17.04;30.69;101227.19;5064736;28;20031;-70
2022/03/11 10:25:09;;;;;;;28.17;14.75;;;;;;;16.87;30.71;101238.13;5063968;28;20118;-71
2022/03/11 10:27:53;;;;;;;27.80;14.55;;;;;;;17.22;29.78;101233.13;5065122;28;20024;-71
2022/03/11 10:30:18;;;;;;;27.50;14.15;;;;;;;17.19;29.55;101225.19;5063851;28;20495;-70
2022/03/11 10:32:57;;;;;;;25.40;14.30;;;;;;;17.08;30.13;101228.91;5065114;28;20089;-70
2022/03/11 10:35:30;;;;;;;27.77;13.68;;;;;;;17.40;29.86;101235.50;5065428;28;20021;-69
2022/03/11 10:38:01;;;;;;;27.08;14.40;;;;;;;17.46;29.92;101228.25;5063658;28;20036;-69
2022/03/11 10:40:28;;;;;;;27.75;14.52;;;;;;;17.41;29.45;101234.56;5062859;28;20032;-70
2022/03/11 10:43:14;;;;;;;26.73;14.23;;;;;;;17.89;29.86;101224.78;5065134;28;20476;-69
2022/03/11 10:46:03;;;;;;;26.63;14.43;;;;;;;18.50;28.88;101211.03;5064788;28;20039;-69
2022/03/11 10:48:41;;;;;;;26.95;15.15;;;;;;;18.02;28.85;101215.63;5041196;28;20476;-70
2022/03/11 10:51:25;;;;;;;27.77;14.32;;;;;;;18.93;29.00;101212.72;5039934;28;20133;-73
2022/03/11 10:53:51;;;;;;;27.13;13.60;;;;;;;19.39;27.50;101195.47;5042186;28;20079;-71
2022/03/11 10:56:26;;;;;;;27.45;14.60;;;;;;;19.16;27.57;101205.00;5042692;28;20037;-70
2022/03/11 10:58:52;;;;;;;25.77;13.95;;;;;;;19.48;26.85;101188.97;5041367;28;20116;-68
2022/03/11 11:01:37;;;;;;;27.75;14.20;;;;;;;19.59;26.92;101192.25;5040292;28;20070;-69
2022/03/11 11:04:05;;;;;;;27.15;14.20;;;;;;;19.90;26.87;101185.16;5040505;28;20041;-70
2022/03/11 11:06:31;;;;;;;27.88;14.52;;;;;;;20.09;26.76;101186.38;5040975;28;20426;-69
2022/03/11 11:08:56;;;;;;;28.90;14.65;;;;;;;20.28;26.47;101170.59;5041344;28;20041;-68
2022/03/11 11:11:22;;;;;;;26.60;14.55;;;;;;;20.10;26.10;101188.13;5039877;28;20124;-68
2022/03/11 11:13:49;;;;;;;26.83;15.40;;;;;;;19.90;26.98;101190.53;5041999;28;20045;-68